sensor_id;sensor_type;location;lat;lon;timestamp;temperature;humidity
31455;DHT22;18084;53.028;8.834;2022-08-19T00:00:14;17.80;99.90
31455;DHT22;18084;53.028;8.834;2022-08-19T00:02:41;17.80;98.90
31455;DHT22;18084;53.028;8.834;2022-08-19T00:05:07;17.80;99.10
31455;DHT22;18084;53.028;8.834;2022-08-19T00:07:33;17.80;99.30
31455;DHT22;18084;53.028;8.834;2022-08-19T00:09:59;17.90;99.50
31455;DHT22;18084;53.028;8.834;2022-08-19T00:12:25;17.90;98.60
31455;DHT22;18084;53.028;8.834;2022-08-19T00:14:50;18.10;98.60
31455;DHT22;18084;53.028;8.834;2022-08-19T00:17:16;17.90;97.50
31455;DHT22;18084;53.028;8.834;2022-08-19T00:19:41;17.90;98.00
31455;DHT22;18084;53.028;8.834;2022-08-19T00:22:07;17.90;99.40
31455;DHT22;18084;53.028;8.834;2022-08-19T00:24:34;18.00;99.10
31455;DHT22;18084;53.028;8.834;2022-08-19T00:27:01;17.90;98.60
31455;DHT22;18084;53.028;8.834;2022-08-19T00:29:27;18.00;99.40
31455;DHT22;18084;53.028;8.834;2022-08-19T00:31:53;18.10;98.70
31455;DHT22;18084;53.028;8.834;2022-08-19T00:34:21;18.00;99.00
31455;DHT22;18084;53.028;8.834;2022-08-19T00:36:48;18.00;98.70
31455;DHT22;18084;53.028;8.834;2022-08-19T00:39:15;18.00;98.70
31455;DHT22;18084;53.028;8.834;2022-08-19T00:41:41;18.00;99.90
31455;DHT22;18084;53.028;8.834;2022-08-19T00:44:12;18.10;99.00
31455;DHT22;18084;53.028;8.834;2022-08-19T00:46:40;18.00;99.90
31455;DHT22;18084;53.028;8.834;2022-08-19T00:49:55;17.90;99.90
31455;DHT22;18084;53.028;8.834;2022-08-19T00:52:03;17.80;99.90
31455;DHT22;18084;53.028;8.834;2022-08-19T00:54:30;17.90;99.90
31455;DHT22;18084;53.028;8.834;2022-08-19T00:56:57;17.90;99.90
31455;DHT22;18084;53.028;8.834;2022-08-19T00:59:23;18.00;99.90
31455;DHT22;18084;53.028;8.834;2022-08-19T01:01:50;17.90;99.90
31455;DHT22;18084;53.028;8.834;2022-08-19T01:04:16;18.00;99.90
31455;DHT22;18084;53.028;8.834;2022-08-19T01:06:41;17.90;99.90
31455;DHT22;18084;53.028;8.834;2022-08-19T01:09:07;18.00;99.90
31455;DHT22;18084;53.028;8.834;2022-08-19T01:11:43;17.90;99.90
31455;DHT22;18084;53.028;8.834;2022-08-19T01:14:09;17.90;99.90
31455;DHT22;18084;53.028;8.834;2022-08-19T01:16:35;17.90;99.90
31455;DHT22;18084;53.028;8.834;2022-08-19T01:19:06;18.00;99.90
31455;DHT22;18084;53.028;8.834;2022-08-19T01:21:48;17.90;99.90
31455;DHT22;18084;53.028;8.834;2022-08-19T01:24:17;17.80;99.90
31455;DHT22;18084;53.028;8.834;2022-08-19T01:26:43;17.80;99.90
31455;DHT22;18084;53.028;8.834;2022-08-19T01:29:09;17.90;99.90
31455;DHT22;18084;53.028;8.834;2022-08-19T01:31:35;18.00;99.90
31455;DHT22;18084;53.028;8.834;2022-08-19T01:34:03;17.90;99.90
31455;DHT22;18084;53.028;8.834;2022-08-19T01:36:33;17.90;99.90
31455;DHT22;18084;53.028;8.834;2022-08-19T01:39:03;17.90;99.90
31455;DHT22;18084;53.028;8.834;2022-08-19T01:41:29;17.90;99.90
31455;DHT22;18084;53.028;8.834;2022-08-19T01:43:55;17.90;99.90
31455;DHT22;18084;53.028;8.834;2022-08-19T01:46:21;17.90;99.90
31455;DHT22;18084;53.028;8.834;2022-08-19T01:48:47;18.00;99.90
31455;DHT22;18084;53.028;8.834;2022-08-19T01:51:15;18.00;99.90
31455;DHT22;18084;53.028;8.834;2022-08-19T01:53:41;18.00;99.90
31455;DHT22;18084;53.028;8.834;2022-08-19T01:56:09;17.90;99.90
31455;DHT22;18084;53.028;8.834;2022-08-19T01:58:50;17.90;99.90
31455;DHT22;18084;53.028;8.834;2022-08-19T02:01:18;17.80;99.90
31455;DHT22;18084;53.028;8.834;2022-08-19T02:03:43;17.80;99.90
31455;DHT22;18084;53.028;8.834;2022-08-19T02:06:09;17.70;99.90
31455;DHT22;18084;53.028;8.834;2022-08-19T02:08:35;17.70;99.90
31455;DHT22;18084;53.028;8.834;2022-08-19T02:11:01;17.70;99.90
31455;DHT22;18084;53.028;8.834;2022-08-19T02:13:27;17.70;99.90
31455;DHT22;18084;53.028;8.834;2022-08-19T02:15:53;17.70;99.90
31455;DHT22;18084;53.028;8.834;2022-08-19T02:18:18;17.80;99.90
31455;DHT22;18084;53.028;8.834;2022-08-19T02:20:44;17.70;99.90
31455;DHT22;18084;53.028;8.834;2022-08-19T02:23:10;17.70;99.90
31455;DHT22;18084;53.028;8.834;2022-08-19T02:25:37;17.70;99.90
31455;DHT22;18084;53.028;8.834;2022-08-19T02:28:04;17.70;99.90
31455;DHT22;18084;53.028;8.834;2022-08-19T02:30:30;17.70;99.90
31455;DHT22;18084;53.028;8.834;2022-08-19T02:32:55;17.70;99.90
31455;DHT22;18084;53.028;8.834;2022-08-19T02:35:21;17.70;99.90
31455;DHT22;18084;53.028;8.834;2022-08-19T02:37:47;17.60;99.90
31455;DHT22;18084;53.028;8.834;2022-08-19T02:40:32;17.60;99.90
31455;DHT22;18084;53.028;8.834;2022-08-19T02:43:05;17.60;99.90
31455;DHT22;18084;53.028;8.834;2022-08-19T02:45:36;17.70;99.90
31455;DHT22;18084;53.028;8.834;2022-08-19T02:48:03;17.60;99.90
31455;DHT22;18084;53.028;8.834;2022-08-19T02:50:30;17.60;99.90
31455;DHT22;18084;53.028;8.834;2022-08-19T02:52:56;17.50;99.90
31455;DHT22;18084;53.028;8.834;2022-08-19T02:55:22;17.50;99.90
31455;DHT22;18084;53.028;8.834;2022-08-19T02:57:48;17.50;99.90
31455;DHT22;18084;53.028;8.834;2022-08-19T03:00:13;17.40;99.90
31455;DHT22;18084;53.028;8.834;2022-08-19T03:02:39;17.40;99.90
31455;DHT22;18084;53.028;8.834;2022-08-19T03:05:07;17.50;99.90
31455;DHT22;18084;53.028;8.834;2022-08-19T03:07:36;17.50;99.90
31455;DHT22;18084;53.028;8.834;2022-08-19T03:10:02;17.40;99.90
31455;DHT22;18084;53.028;8.834;2022-08-19T03:12:28;17.30;99.90
31455;DHT22;18084;53.028;8.834;2022-08-19T03:14:53;17.40;99.90
31455;DHT22;18084;53.028;8.834;2022-08-19T03:17:19;17.30;99.90
31455;DHT22;18084;53.028;8.834;2022-08-19T03:19:45;17.40;99.90
31455;DHT22;18084;53.028;8.834;2022-08-19T03:22:11;17.30;99.90
31455;DHT22;18084;53.028;8.834;2022-08-19T03:24:37;17.30;99.90
31455;DHT22;18084;53.028;8.834;2022-08-19T03:27:03;17.30;99.90
31455;DHT22;18084;53.028;8.834;2022-08-19T05:05:18;16.30;99.90
31455;DHT22;18084;53.028;8.834;2022-08-19T05:07:45;16.40;99.90
31455;DHT22;18084;53.028;8.834;2022-08-19T05:10:10;16.40;99.90
31455;DHT22;18084;53.028;8.834;2022-08-19T05:12:36;16.40;99.90
31455;DHT22;18084;53.028;8.834;2022-08-19T05:15:04;16.40;99.90
31455;DHT22;18084;53.028;8.834;2022-08-19T05:17:31;16.50;99.90
31455;DHT22;18084;53.028;8.834;2022-08-19T05:19:56;16.50;99.90
31455;DHT22;18084;53.028;8.834;2022-08-19T05:22:42;16.60;99.90
31455;DHT22;18084;53.028;8.834;2022-08-19T05:25:15;16.60;99.90
31455;DHT22;18084;53.028;8.834;2022-08-19T05:27:41;16.60;99.90
31455;DHT22;18084;53.028;8.834;2022-08-19T05:30:07;16.70;99.90
31455;DHT22;18084;53.028;8.834;2022-08-19T05:32:34;16.70;99.90
31455;DHT22;18084;53.028;8.834;2022-08-19T05:34:59;16.60;99.90
31455;DHT22;18084;53.028;8.834;2022-08-19T05:37:25;16.60;99.90
31455;DHT22;18084;53.028;8.834;2022-08-19T05:39:53;16.60;99.90
31455;DHT22;18084;53.028;8.834;2022-08-19T05:42:20;16.70;99.90
31455;DHT22;18084;53.028;8.834;2022-08-19T05:44:48;16.70;99.90
31455;DHT22;18084;53.028;8.834;2022-08-19T05:47:15;17.00;99.90
31455;DHT22;18084;53.028;8.834;2022-08-19T05:49:46;17.10;99.90
31455;DHT22;18084;53.028;8.834;2022-08-19T05:52:19;16.90;99.90
31455;DHT22;18084;53.028;8.834;2022-08-19T05:54:45;17.00;99.90
31455;DHT22;18084;53.028;8.834;2022-08-19T05:57:13;17.20;99.90
31455;DHT22;18084;53.028;8.834;2022-08-19T05:59:42;17.70;99.90
31455;DHT22;18084;53.028;8.834;2022-08-19T06:02:07;17.60;97.50
31455;DHT22;18084;53.028;8.834;2022-08-19T06:04:33;18.00;94.50
31455;DHT22;18084;53.028;8.834;2022-08-19T06:06:59;18.30;87.60
31455;DHT22;18084;53.028;8.834;2022-08-19T06:09:24;18.60;71.40
31455;DHT22;18084;53.028;8.834;2022-08-19T06:11:53;18.80;57.60
31455;DHT22;18084;53.028;8.834;2022-08-19T06:14:21;19.00;43.40
31455;DHT22;18084;53.028;8.834;2022-08-19T06:16:48;19.30;28.10
31455;DHT22;18084;53.028;8.834;2022-08-19T06:19:16;19.50;15.80
31455;DHT22;18084;53.028;8.834;2022-08-19T06:21:44;19.90;8.80
31455;DHT22;18084;53.028;8.834;2022-08-19T06:24:12;20.10;1.00
31455;DHT22;18084;53.028;8.834;2022-08-19T06:26:41;20.40;1.00
31455;DHT22;18084;53.028;8.834;2022-08-19T06:29:08;20.50;1.00
31455;DHT22;18084;53.028;8.834;2022-08-19T06:31:35;20.50;1.00
31455;DHT22;18084;53.028;8.834;2022-08-19T06:34:05;20.60;1.00
31455;DHT22;18084;53.028;8.834;2022-08-19T06:36:34;20.50;1.00
31455;DHT22;18084;53.028;8.834;2022-08-19T06:39:12;21.00;99.90
31455;DHT22;18084;53.028;8.834;2022-08-19T06:41:42;21.50;85.20
31455;DHT22;18084;53.028;8.834;2022-08-19T06:44:08;21.70;39.80
31455;DHT22;18084;53.028;8.834;2022-08-19T06:46:34;22.00;99.90
31455;DHT22;18084;53.028;8.834;2022-08-19T06:49:00;22.30;99.90
31455;DHT22;18084;53.028;8.834;2022-08-19T06:51:26;22.70;98.90
31455;DHT22;18084;53.028;8.834;2022-08-19T06:53:53;22.80;61.70
31455;DHT22;18084;53.028;8.834;2022-08-19T06:56:26;22.60;29.60
31455;DHT22;18084;53.028;8.834;2022-08-19T06:58:59;22.30;52.80
31455;DHT22;18084;53.028;8.834;2022-08-19T07:01:25;21.80;99.90
31455;DHT22;18084;53.028;8.834;2022-08-19T07:03:51;21.60;99.90
31455;DHT22;18084;53.028;8.834;2022-08-19T07:06:17;21.70;1.00
31455;DHT22;18084;53.028;8.834;2022-08-19T07:08:45;21.80;99.90
31455;DHT22;18084;53.028;8.834;2022-08-19T07:11:13;21.80;99.90
31455;DHT22;18084;53.028;8.834;2022-08-19T07:13:40;22.20;99.90
31455;DHT22;18084;53.028;8.834;2022-08-19T07:16:11;23.00;94.10
31455;DHT22;18084;53.028;8.834;2022-08-19T07:18:37;23.50;1.00
31455;DHT22;18084;53.028;8.834;2022-08-19T07:21:09;23.90;1.00
31455;DHT22;18084;53.028;8.834;2022-08-19T07:23:35;23.60;1.00
31455;DHT22;18084;53.028;8.834;2022-08-19T07:26:14;23.40;1.00
31455;DHT22;18084;53.028;8.834;2022-08-19T07:28:40;23.50;1.00
31455;DHT22;18084;53.028;8.834;2022-08-19T07:31:10;24.30;1.00
31455;DHT22;18084;53.028;8.834;2022-08-19T07:33:36;24.10;1.00
31455;DHT22;18084;53.028;8.834;2022-08-19T07:36:06;25.50;99.90
31455;DHT22;18084;53.028;8.834;2022-08-19T07:38:33;26.30;99.90
31455;DHT22;18084;53.028;8.834;2022-08-19T07:40:59;26.70;99.90
31455;DHT22;18084;53.028;8.834;2022-08-19T07:43:26;26.00;99.90
31455;DHT22;18084;53.028;8.834;2022-08-19T07:45:53;26.50;99.90
31455;DHT22;18084;53.028;8.834;2022-08-19T07:48:26;26.40;99.90
31455;DHT22;18084;53.028;8.834;2022-08-19T07:50:53;26.10;99.90
31455;DHT22;18084;53.028;8.834;2022-08-19T07:53:20;26.10;99.90
31455;DHT22;18084;53.028;8.834;2022-08-19T07:55:45;26.20;99.90
31455;DHT22;18084;53.028;8.834;2022-08-19T07:58:14;25.50;99.90
31455;DHT22;18084;53.028;8.834;2022-08-19T08:00:42;25.60;99.90
31455;DHT22;18084;53.028;8.834;2022-08-19T08:03:08;26.60;99.90
31455;DHT22;18084;53.028;8.834;2022-08-19T08:05:34;27.20;99.90
31455;DHT22;18084;53.028;8.834;2022-08-19T08:08:20;28.50;99.90
31455;DHT22;18084;53.028;8.834;2022-08-19T08:11:05;27.60;99.90
31455;DHT22;18084;53.028;8.834;2022-08-19T08:13:30;26.80;99.90
31455;DHT22;18084;53.028;8.834;2022-08-19T08:15:57;27.20;99.90
31455;DHT22;18084;53.028;8.834;2022-08-19T08:18:24;27.90;99.90
31455;DHT22;18084;53.028;8.834;2022-08-19T08:20:50;28.70;99.90
31455;DHT22;18084;53.028;8.834;2022-08-19T08:23:15;28.90;99.90
31455;DHT22;18084;53.028;8.834;2022-08-19T08:25:53;28.60;99.90
31455;DHT22;18084;53.028;8.834;2022-08-19T08:28:20;27.80;99.90
31455;DHT22;18084;53.028;8.834;2022-08-19T08:30:47;27.90;99.90
31455;DHT22;18084;53.028;8.834;2022-08-19T08:33:14;28.90;99.90
31455;DHT22;18084;53.028;8.834;2022-08-19T08:35:42;29.00;99.90
31455;DHT22;18084;53.028;8.834;2022-08-19T08:38:07;27.90;99.90
31455;DHT22;18084;53.028;8.834;2022-08-19T08:43:28;26.90;99.90
31455;DHT22;18084;53.028;8.834;2022-08-19T08:46:03;27.30;99.90
31455;DHT22;18084;53.028;8.834;2022-08-19T08:48:49;27.20;99.90
31455;DHT22;18084;53.028;8.834;2022-08-19T08:51:22;27.20;99.90
31455;DHT22;18084;53.028;8.834;2022-08-19T08:53:52;27.10;99.90
31455;DHT22;18084;53.028;8.834;2022-08-19T08:56:19;27.20;99.90
31455;DHT22;18084;53.028;8.834;2022-08-19T08:59:03;27.00;99.90
31455;DHT22;18084;53.028;8.834;2022-08-19T09:01:32;27.30;99.90
31455;DHT22;18084;53.028;8.834;2022-08-19T09:03:57;27.80;99.90
31455;DHT22;18084;53.028;8.834;2022-08-19T09:06:36;28.20;99.90
31455;DHT22;18084;53.028;8.834;2022-08-19T09:12:10;28.30;99.90
31455;DHT22;18084;53.028;8.834;2022-08-19T09:14:53;28.70;99.90
31455;DHT22;18084;53.028;8.834;2022-08-19T09:17:24;29.00;99.90
31455;DHT22;18084;53.028;8.834;2022-08-19T09:20:34;28.50;99.90
31455;DHT22;18084;53.028;8.834;2022-08-19T09:22:42;28.40;99.90
31455;DHT22;18084;53.028;8.834;2022-08-19T09:25:13;28.20;99.90
31455;DHT22;18084;53.028;8.834;2022-08-19T09:27:42;28.60;99.90
31455;DHT22;18084;53.028;8.834;2022-08-19T09:30:12;29.00;99.90
31455;DHT22;18084;53.028;8.834;2022-08-19T09:32:38;29.00;99.90
31455;DHT22;18084;53.028;8.834;2022-08-19T09:35:07;29.00;99.90
31455;DHT22;18084;53.028;8.834;2022-08-19T09:37:33;29.10;99.90
31455;DHT22;18084;53.028;8.834;2022-08-19T09:39:59;28.70;99.90
31455;DHT22;18084;53.028;8.834;2022-08-19T09:42:25;28.80;99.90
31455;DHT22;18084;53.028;8.834;2022-08-19T09:44:50;29.10;99.90
31455;DHT22;18084;53.028;8.834;2022-08-19T09:47:16;28.60;99.90
31455;DHT22;18084;53.028;8.834;2022-08-19T09:49:41;28.30;99.90
31455;DHT22;18084;53.028;8.834;2022-08-19T09:52:11;28.40;99.90
31455;DHT22;18084;53.028;8.834;2022-08-19T09:54:38;28.60;99.90
31455;DHT22;18084;53.028;8.834;2022-08-19T09:57:03;29.00;99.90
31455;DHT22;18084;53.028;8.834;2022-08-19T09:59:29;29.20;99.90
31455;DHT22;18084;53.028;8.834;2022-08-19T10:01:55;29.00;99.90
31455;DHT22;18084;53.028;8.834;2022-08-19T10:04:20;29.00;99.90
31455;DHT22;18084;53.028;8.834;2022-08-19T10:06:47;28.80;99.90
31455;DHT22;18084;53.028;8.834;2022-08-19T10:09:14;28.70;99.90
31455;DHT22;18084;53.028;8.834;2022-08-19T10:11:41;28.70;99.90
31455;DHT22;18084;53.028;8.834;2022-08-19T10:14:07;29.00;99.90
31455;DHT22;18084;53.028;8.834;2022-08-19T10:16:35;29.10;99.90
31455;DHT22;18084;53.028;8.834;2022-08-19T10:19:01;28.60;99.90
31455;DHT22;18084;53.028;8.834;2022-08-19T10:21:30;28.70;99.90
31455;DHT22;18084;53.028;8.834;2022-08-19T10:23:59;28.30;99.90
31455;DHT22;18084;53.028;8.834;2022-08-19T10:26:33;28.10;99.90
31455;DHT22;18084;53.028;8.834;2022-08-19T10:28:59;28.20;99.90
31455;DHT22;18084;53.028;8.834;2022-08-19T10:31:28;28.10;99.90
31455;DHT22;18084;53.028;8.834;2022-08-19T10:33:54;28.00;99.90
31455;DHT22;18084;53.028;8.834;2022-08-19T10:36:25;28.00;99.90
31455;DHT22;18084;53.028;8.834;2022-08-19T10:38:53;27.70;99.90
31455;DHT22;18084;53.028;8.834;2022-08-19T10:41:23;27.60;99.90
31455;DHT22;18084;53.028;8.834;2022-08-19T10:43:58;27.40;99.90
31455;DHT22;18084;53.028;8.834;2022-08-19T10:46:27;27.50;99.90
31455;DHT22;18084;53.028;8.834;2022-08-19T10:48:53;27.70;99.90
31455;DHT22;18084;53.028;8.834;2022-08-19T10:51:19;27.50;99.90
31455;DHT22;18084;53.028;8.834;2022-08-19T10:54:04;27.60;99.90
31455;DHT22;18084;53.028;8.834;2022-08-19T10:56:30;27.70;99.90
31455;DHT22;18084;53.028;8.834;2022-08-19T10:59:16;27.60;99.90
31455;DHT22;18084;53.028;8.834;2022-08-19T11:01:43;27.50;99.90
31455;DHT22;18084;53.028;8.834;2022-08-19T11:04:09;27.40;99.90
31455;DHT22;18084;53.028;8.834;2022-08-19T11:06:37;27.60;99.90
31455;DHT22;18084;53.028;8.834;2022-08-19T11:09:04;27.10;99.90
31455;DHT22;18084;53.028;8.834;2022-08-19T11:11:30;27.10;99.90
31455;DHT22;18084;53.028;8.834;2022-08-19T11:13:57;27.20;99.90
31455;DHT22;18084;53.028;8.834;2022-08-19T11:16:25;27.30;99.90
31455;DHT22;18084;53.028;8.834;2022-08-19T11:18:54;27.60;99.90
31455;DHT22;18084;53.028;8.834;2022-08-19T11:21:23;27.70;99.90
31455;DHT22;18084;53.028;8.834;2022-08-19T11:23:52;27.90;99.90
31455;DHT22;18084;53.028;8.834;2022-08-19T11:26:19;28.10;99.90
31455;DHT22;18084;53.028;8.834;2022-08-19T11:28:45;28.10;99.90
31455;DHT22;18084;53.028;8.834;2022-08-19T11:31:17;28.20;99.90
31455;DHT22;18084;53.028;8.834;2022-08-19T11:33:44;28.30;99.90
31455;DHT22;18084;53.028;8.834;2022-08-19T11:36:11;28.10;99.90
31455;DHT22;18084;53.028;8.834;2022-08-19T11:38:37;28.10;99.90
31455;DHT22;18084;53.028;8.834;2022-08-19T11:41:06;28.30;99.90
31455;DHT22;18084;53.028;8.834;2022-08-19T11:43:33;28.30;99.90
31455;DHT22;18084;53.028;8.834;2022-08-19T11:45:59;27.90;99.90
31455;DHT22;18084;53.028;8.834;2022-08-19T11:48:25;27.80;99.90
31455;DHT22;18084;53.028;8.834;2022-08-19T11:50:52;28.00;99.90
31455;DHT22;18084;53.028;8.834;2022-08-19T11:53:19;27.90;99.90
31455;DHT22;18084;53.028;8.834;2022-08-19T11:55:46;28.10;99.90
31455;DHT22;18084;53.028;8.834;2022-08-19T11:58:13;28.10;99.90
31455;DHT22;18084;53.028;8.834;2022-08-19T12:00:39;28.50;99.90
31455;DHT22;18084;53.028;8.834;2022-08-19T12:03:05;28.70;99.90
31455;DHT22;18084;53.028;8.834;2022-08-19T12:05:31;28.50;99.90
31455;DHT22;18084;53.028;8.834;2022-08-19T12:07:57;28.60;99.90
31455;DHT22;18084;53.028;8.834;2022-08-19T12:10:22;28.80;99.90
31455;DHT22;18084;53.028;8.834;2022-08-19T12:12:48;28.50;99.90
31455;DHT22;18084;53.028;8.834;2022-08-19T12:15:14;28.70;99.90
31455;DHT22;18084;53.028;8.834;2022-08-19T12:17:40;29.20;99.90
31455;DHT22;18084;53.028;8.834;2022-08-19T12:20:08;29.20;99.90
31455;DHT22;18084;53.028;8.834;2022-08-19T12:22:36;29.20;99.90
31455;DHT22;18084;53.028;8.834;2022-08-19T12:25:04;29.20;99.90
31455;DHT22;18084;53.028;8.834;2022-08-19T12:27:30;29.30;99.90
31455;DHT22;18084;53.028;8.834;2022-08-19T12:29:56;29.40;99.90
31455;DHT22;18084;53.028;8.834;2022-08-19T12:32:22;29.40;99.90
31455;DHT22;18084;53.028;8.834;2022-08-19T12:34:49;29.20;99.90
31455;DHT22;18084;53.028;8.834;2022-08-19T12:37:14;29.00;99.90
31455;DHT22;18084;53.028;8.834;2022-08-19T12:39:41;29.00;99.90
31455;DHT22;18084;53.028;8.834;2022-08-19T12:42:08;29.20;99.90
31455;DHT22;18084;53.028;8.834;2022-08-19T12:44:35;29.30;99.90
31455;DHT22;18084;53.028;8.834;2022-08-19T12:47:00;28.90;99.90
31455;DHT22;18084;53.028;8.834;2022-08-19T12:49:28;29.00;99.90
31455;DHT22;18084;53.028;8.834;2022-08-19T12:51:54;29.20;99.90
31455;DHT22;18084;53.028;8.834;2022-08-19T12:54:26;29.20;99.90
31455;DHT22;18084;53.028;8.834;2022-08-19T12:56:52;29.20;99.90
31455;DHT22;18084;53.028;8.834;2022-08-19T12:59:17;29.10;99.90
31455;DHT22;18084;53.028;8.834;2022-08-19T13:01:44;29.10;99.90
31455;DHT22;18084;53.028;8.834;2022-08-19T13:04:10;29.20;99.90
31455;DHT22;18084;53.028;8.834;2022-08-19T13:06:36;29.40;99.90
31455;DHT22;18084;53.028;8.834;2022-08-19T13:09:03;29.70;99.90
31455;DHT22;18084;53.028;8.834;2022-08-19T13:11:29;29.40;99.90
31455;DHT22;18084;53.028;8.834;2022-08-19T13:13:58;29.70;99.90
31455;DHT22;18084;53.028;8.834;2022-08-19T13:16:24;29.70;99.50
31455;DHT22;18084;53.028;8.834;2022-08-19T13:18:51;29.70;98.20
31455;DHT22;18084;53.028;8.834;2022-08-19T13:21:18;29.30;97.80
31455;DHT22;18084;53.028;8.834;2022-08-19T13:23:45;29.20;98.00
31455;DHT22;18084;53.028;8.834;2022-08-19T13:26:11;29.40;98.00
31455;DHT22;18084;53.028;8.834;2022-08-19T13:28:39;29.40;98.10
31455;DHT22;18084;53.028;8.834;2022-08-19T13:31:27;29.40;97.20
31455;DHT22;18084;53.028;8.834;2022-08-19T13:34:12;29.00;97.30
31455;DHT22;18084;53.028;8.834;2022-08-19T13:36:38;29.40;97.40
31455;DHT22;18084;53.028;8.834;2022-08-19T13:39:08;29.40;96.20
31455;DHT22;18084;53.028;8.834;2022-08-19T13:41:42;29.50;93.50
31455;DHT22;18084;53.028;8.834;2022-08-19T13:44:09;29.30;92.40
31455;DHT22;18084;53.028;8.834;2022-08-19T13:46:34;29.20;91.40
31455;DHT22;18084;53.028;8.834;2022-08-19T13:49:00;29.30;92.60
31455;DHT22;18084;53.028;8.834;2022-08-19T13:51:25;30.00;92.90
31455;DHT22;18084;53.028;8.834;2022-08-19T13:53:51;29.60;92.80
31455;DHT22;18084;53.028;8.834;2022-08-19T13:56:18;29.70;92.10
31455;DHT22;18084;53.028;8.834;2022-08-19T13:58:45;29.50;92.70
31455;DHT22;18084;53.028;8.834;2022-08-19T14:01:18;29.50;92.60
31455;DHT22;18084;53.028;8.834;2022-08-19T14:03:46;29.60;93.50
31455;DHT22;18084;53.028;8.834;2022-08-19T14:06:12;29.70;94.20
31455;DHT22;18084;53.028;8.834;2022-08-19T14:08:37;29.70;92.60
31455;DHT22;18084;53.028;8.834;2022-08-19T14:11:07;29.70;92.00
31455;DHT22;18084;53.028;8.834;2022-08-19T14:13:32;29.60;92.00
31455;DHT22;18084;53.028;8.834;2022-08-19T14:15:59;29.40;91.90
31455;DHT22;18084;53.028;8.834;2022-08-19T14:18:25;29.20;92.10
31455;DHT22;18084;53.028;8.834;2022-08-19T14:20:51;29.60;92.50
31455;DHT22;18084;53.028;8.834;2022-08-19T14:23:17;29.70;93.00
31455;DHT22;18084;53.028;8.834;2022-08-19T14:25:43;29.50;92.10
31455;DHT22;18084;53.028;8.834;2022-08-19T14:28:08;29.70;92.70
31455;DHT22;18084;53.028;8.834;2022-08-19T14:30:35;29.70;92.40
31455;DHT22;18084;53.028;8.834;2022-08-19T14:33:04;29.50;92.10
31455;DHT22;18084;53.028;8.834;2022-08-19T14:35:31;29.50;92.20
31455;DHT22;18084;53.028;8.834;2022-08-19T14:38:02;29.50;92.40
31455;DHT22;18084;53.028;8.834;2022-08-19T14:40:29;29.50;92.50
31455;DHT22;18084;53.028;8.834;2022-08-19T14:43:00;29.20;92.70
31455;DHT22;18084;53.028;8.834;2022-08-19T14:45:30;29.30;92.50
31455;DHT22;18084;53.028;8.834;2022-08-19T14:47:57;29.40;92.50
31455;DHT22;18084;53.028;8.834;2022-08-19T14:50:24;29.50;92.50
31455;DHT22;18084;53.028;8.834;2022-08-19T14:52:56;29.40;91.90
31455;DHT22;18084;53.028;8.834;2022-08-19T14:55:22;29.30;92.30
31455;DHT22;18084;53.028;8.834;2022-08-19T14:57:47;29.10;91.60
31455;DHT22;18084;53.028;8.834;2022-08-19T15:00:14;29.10;91.30
31455;DHT22;18084;53.028;8.834;2022-08-19T15:02:40;29.10;92.30
31455;DHT22;18084;53.028;8.834;2022-08-19T15:05:06;29.00;91.90
31455;DHT22;18084;53.028;8.834;2022-08-19T15:07:32;28.90;91.50
31455;DHT22;18084;53.028;8.834;2022-08-19T15:09:58;29.00;91.90
31455;DHT22;18084;53.028;8.834;2022-08-19T15:12:24;28.90;91.70
31455;DHT22;18084;53.028;8.834;2022-08-19T15:14:50;28.90;90.80
31455;DHT22;18084;53.028;8.834;2022-08-19T15:17:16;29.00;91.30
31455;DHT22;18084;53.028;8.834;2022-08-19T15:19:42;29.30;91.80
31455;DHT22;18084;53.028;8.834;2022-08-19T15:22:08;29.30;90.70
31455;DHT22;18084;53.028;8.834;2022-08-19T15:24:33;29.00;91.30
31455;DHT22;18084;53.028;8.834;2022-08-19T15:27:01;28.90;91.50
31455;DHT22;18084;53.028;8.834;2022-08-19T15:29:26;29.00;92.00
31455;DHT22;18084;53.028;8.834;2022-08-19T15:31:53;28.90;91.40
31455;DHT22;18084;53.028;8.834;2022-08-19T15:34:22;28.80;91.40
31455;DHT22;18084;53.028;8.834;2022-08-19T15:36:47;29.20;91.60
31455;DHT22;18084;53.028;8.834;2022-08-19T15:39:13;28.90;90.90
31455;DHT22;18084;53.028;8.834;2022-08-19T15:41:39;28.60;90.90
31455;DHT22;18084;53.028;8.834;2022-08-19T15:44:10;28.90;91.70
31455;DHT22;18084;53.028;8.834;2022-08-19T15:46:38;29.10;91.60
31455;DHT22;18084;53.028;8.834;2022-08-19T15:49:05;28.80;91.70
31455;DHT22;18084;53.028;8.834;2022-08-19T15:51:33;28.70;91.50
31455;DHT22;18084;53.028;8.834;2022-08-19T15:54:01;28.80;91.40
31455;DHT22;18084;53.028;8.834;2022-08-19T15:56:27;29.70;91.70
31455;DHT22;18084;53.028;8.834;2022-08-19T15:59:13;28.70;90.00
31455;DHT22;18084;53.028;8.834;2022-08-19T16:01:57;28.60;90.60
31455;DHT22;18084;53.028;8.834;2022-08-19T16:04:42;28.80;91.50
31455;DHT22;18084;53.028;8.834;2022-08-19T16:07:26;28.80;91.40
31455;DHT22;18084;53.028;8.834;2022-08-19T16:09:52;28.90;91.10
31455;DHT22;18084;53.028;8.834;2022-08-19T16:12:17;28.70;91.30
31455;DHT22;18084;53.028;8.834;2022-08-19T16:14:43;28.40;91.20
31455;DHT22;18084;53.028;8.834;2022-08-19T16:17:09;28.40;91.30
31455;DHT22;18084;53.028;8.834;2022-08-19T16:19:36;28.50;91.50
31455;DHT22;18084;53.028;8.834;2022-08-19T16:22:03;28.70;91.30
31455;DHT22;18084;53.028;8.834;2022-08-19T16:24:30;28.60;91.30
31455;DHT22;18084;53.028;8.834;2022-08-19T16:26:58;28.60;91.20
31455;DHT22;18084;53.028;8.834;2022-08-19T16:29:26;28.50;90.80
31455;DHT22;18084;53.028;8.834;2022-08-19T16:31:51;28.70;91.80
31455;DHT22;18084;53.028;8.834;2022-08-19T16:34:19;28.90;91.60
31455;DHT22;18084;53.028;8.834;2022-08-19T16:36:45;28.80;91.90
31455;DHT22;18084;53.028;8.834;2022-08-19T16:39:12;28.70;92.10
31455;DHT22;18084;53.028;8.834;2022-08-19T16:41:39;28.80;93.40
31455;DHT22;18084;53.028;8.834;2022-08-19T16:44:07;28.80;93.00
31455;DHT22;18084;53.028;8.834;2022-08-19T16:46:32;28.90;93.30
31455;DHT22;18084;53.028;8.834;2022-08-19T16:48:58;28.80;92.50
31455;DHT22;18084;53.028;8.834;2022-08-19T16:51:24;28.60;92.50
31455;DHT22;18084;53.028;8.834;2022-08-19T16:53:49;28.80;92.80
31455;DHT22;18084;53.028;8.834;2022-08-19T16:56:17;28.80;93.00
31455;DHT22;18084;53.028;8.834;2022-08-19T16:58:43;28.70;92.40
31455;DHT22;18084;53.028;8.834;2022-08-19T17:01:10;28.80;92.50
31455;DHT22;18084;53.028;8.834;2022-08-19T17:03:36;28.50;92.60
31455;DHT22;18084;53.028;8.834;2022-08-19T17:06:12;28.30;93.30
31455;DHT22;18084;53.028;8.834;2022-08-19T17:08:39;28.20;92.90
31455;DHT22;18084;53.028;8.834;2022-08-19T17:11:05;28.20;93.60
31455;DHT22;18084;53.028;8.834;2022-08-19T17:13:31;28.10;92.60
31455;DHT22;18084;53.028;8.834;2022-08-19T17:15:57;27.80;92.90
31455;DHT22;18084;53.028;8.834;2022-08-19T17:18:23;27.60;92.80